createdAt,value
2022-11-06T00:00:37.544Z,99.90
2022-11-06T00:03:06.564Z,99.90
2022-11-06T00:05:52.933Z,99.90
2022-11-06T00:08:29.927Z,99.90
2022-11-06T00:10:58.456Z,99.90
2022-11-06T00:13:29.079Z,99.90
2022-11-06T00:15:57.411Z,99.90
2022-11-06T00:18:28.728Z,99.90
2022-11-06T00:20:57.054Z,99.90
2022-11-06T00:23:25.409Z,99.90
2022-11-06T00:25:56.770Z,99.90
2022-11-06T00:28:25.156Z,99.90
2022-11-06T00:31:02.700Z,99.90
2022-11-06T00:33:31.017Z,99.90
2022-11-06T00:35:59.695Z,99.90
2022-11-06T00:38:28.029Z,99.90
2022-11-06T00:40:56.456Z,99.90
2022-11-06T00:43:24.864Z,99.90
2022-11-06T00:45:54.662Z,99.90
2022-11-06T00:48:22.984Z,99.90
2022-11-06T00:50:51.263Z,99.90
2022-11-06T00:53:19.666Z,99.90
2022-11-06T00:55:48.123Z,99.90
2022-11-06T00:58:16.505Z,99.90
2022-11-06T01:00:44.877Z,99.90
2022-11-06T01:03:14.703Z,99.90
2022-11-06T01:05:43.138Z,99.90
2022-11-06T01:08:11.955Z,99.90
2022-11-06T01:10:40.753Z,99.90
2022-11-06T01:13:09.295Z,99.90
2022-11-06T01:15:38.383Z,99.90
2022-11-06T01:18:06.760Z,99.90
2022-11-06T01:20:39.018Z,99.90
2022-11-06T01:23:07.332Z,99.90
2022-11-06T01:25:35.582Z,99.90
2022-11-06T01:28:03.884Z,99.90
2022-11-06T01:30:32.178Z,99.90
2022-11-06T01:33:00.460Z,99.90
2022-11-06T01:35:28.696Z,99.90
2022-11-06T01:37:58.690Z,99.90
2022-11-06T01:40:27.092Z,99.90
2022-11-06T01:42:55.509Z,99.90
2022-11-06T01:45:35.109Z,99.90
2022-11-06T01:48:05.387Z,99.90
2022-11-06T01:50:34.107Z,99.90
2022-11-06T01:53:04.222Z,99.90
2022-11-06T01:55:37.210Z,99.90
2022-11-06T01:58:08.935Z,99.90
2022-11-06T02:00:37.302Z,99.90
2022-11-06T02:03:05.902Z,99.90
2022-11-06T02:05:34.431Z,99.90
2022-11-06T02:08:05.678Z,99.90
2022-11-06T02:10:34.524Z,99.90
2022-11-06T02:13:22.699Z,99.90
2022-11-06T02:15:56.693Z,99.90
2022-11-06T02:18:52.234Z,99.90
2022-11-06T02:21:47.701Z,99.90
2022-11-06T02:24:43.481Z,99.90
2022-11-06T02:27:15.827Z,99.90
2022-11-06T02:29:55.949Z,99.90
2022-11-06T02:32:29.834Z,99.90
2022-11-06T02:35:02.033Z,99.90
2022-11-06T02:37:34.005Z,99.90
2022-11-06T02:40:06.332Z,99.90
2022-11-06T02:42:39.601Z,99.90
2022-11-06T02:45:11.419Z,99.90
2022-11-06T02:47:41.784Z,99.90
2022-11-06T02:50:13.321Z,99.90
2022-11-06T02:52:46.540Z,99.90
2022-11-06T02:55:19.778Z,99.90
2022-11-06T02:57:53.449Z,99.90
2022-11-06T03:00:23.877Z,99.90
2022-11-06T03:02:59.781Z,99.90
2022-11-06T03:05:33.391Z,99.90
2022-11-06T03:08:08.358Z,99.90
2022-11-06T03:10:44.979Z,99.90
2022-11-06T03:13:19.931Z,99.90
2022-11-06T03:15:54.335Z,99.90
2022-11-06T03:18:29.119Z,99.90
2022-11-06T03:21:03.115Z,99.90
2022-11-06T03:23:37.083Z,99.90
2022-11-06T03:26:14.675Z,99.90
2022-11-06T03:28:52.984Z,99.90
2022-11-06T03:31:28.913Z,99.90
2022-11-06T03:34:02.872Z,99.90
2022-11-06T03:36:35.512Z,99.90
2022-11-06T03:39:06.679Z,99.90
2022-11-06T03:41:42.695Z,99.90
2022-11-06T03:44:16.157Z,99.90
2022-11-06T03:46:49.004Z,99.90
2022-11-06T03:49:21.555Z,99.90
2022-11-06T03:51:53.658Z,99.90
2022-11-06T03:54:24.924Z,99.90
2022-11-06T03:56:57.545Z,99.90
2022-11-06T03:59:30.709Z,99.90
2022-11-06T04:02:00.384Z,99.90
2022-11-06T04:04:33.705Z,99.90
2022-11-06T04:07:07.051Z,99.90
2022-11-06T04:09:55.887Z,99.90
2022-11-06T04:12:44.815Z,99.90
2022-11-06T04:15:18.058Z,99.90
2022-11-06T04:17:46.519Z,99.90
2022-11-06T04:20:33.686Z,99.90
2022-11-06T04:23:13.734Z,99.90
2022-11-06T04:26:14.842Z,99.90
2022-11-06T04:28:50.401Z,99.90
2022-11-06T04:31:29.607Z,99.90
2022-11-06T04:34:04.963Z,99.90
2022-11-06T04:36:43.604Z,99.90
2022-11-06T04:39:18.170Z,99.90
2022-11-06T04:41:52.841Z,99.90
2022-11-06T04:44:26.402Z,99.90
2022-11-06T04:46:59.574Z,99.90
2022-11-06T04:49:30.727Z,99.90
2022-11-06T04:51:59.683Z,99.90
2022-11-06T04:54:28.195Z,99.90
2022-11-06T04:57:00.642Z,99.90
2022-11-06T04:59:29.437Z,99.90
2022-11-06T05:02:00.305Z,99.90
2022-11-06T05:04:28.797Z,99.90
2022-11-06T05:06:57.290Z,99.90
2022-11-06T05:09:26.097Z,99.90
2022-11-06T05:11:54.432Z,99.90
2022-11-06T05:14:22.869Z,99.90
2022-11-06T05:16:51.228Z,99.90
2022-11-06T05:19:21.096Z,99.90
2022-11-06T05:22:06.647Z,99.90
2022-11-06T05:24:35.006Z,99.90
2022-11-06T05:27:03.992Z,99.90
2022-11-06T05:29:32.445Z,99.90
2022-11-06T05:32:00.778Z,99.90
2022-11-06T05:34:30.625Z,99.90
2022-11-06T05:36:59.248Z,99.90
2022-11-06T05:39:27.550Z,99.90
2022-11-06T05:41:55.885Z,99.90
2022-11-06T05:44:24.473Z,99.90
2022-11-06T05:46:52.723Z,99.90
2022-11-06T05:49:21.086Z,99.90
2022-11-06T05:51:50.825Z,99.90
2022-11-06T05:54:19.205Z,99.90
2022-11-06T05:56:47.434Z,99.90
2022-11-06T05:59:15.789Z,99.90
2022-11-06T06:01:44.240Z,99.90
2022-11-06T06:04:12.712Z,99.90
2022-11-06T06:06:41.377Z,99.90
2022-11-06T06:09:11.230Z,99.90
2022-11-06T06:11:39.598Z,99.90
2022-11-06T06:14:07.947Z,99.90
2022-11-06T06:16:36.385Z,99.90
2022-11-06T06:19:04.878Z,99.90
2022-11-06T06:21:33.220Z,99.90
2022-11-06T06:24:01.983Z,99.90
2022-11-06T06:26:32.436Z,99.90
2022-11-06T06:29:02.276Z,99.90
2022-11-06T06:31:30.892Z,99.90
2022-11-06T06:34:01.324Z,99.90
2022-11-06T06:36:29.707Z,99.90
2022-11-06T06:38:58.065Z,99.90
2022-11-06T06:41:26.321Z,99.90
2022-11-06T06:43:56.059Z,99.90
2022-11-06T06:46:24.436Z,99.90
2022-11-06T06:48:52.825Z,99.90
2022-11-06T06:51:23.941Z,99.90
2022-11-06T06:53:52.636Z,99.90
2022-11-06T06:56:21.035Z,99.90
2022-11-06T06:58:49.474Z,99.90
2022-11-06T07:01:19.451Z,99.90
2022-11-06T07:03:47.912Z,99.90
2022-11-06T07:06:16.480Z,99.90
2022-11-06T07:08:44.862Z,99.90
2022-11-06T07:11:13.250Z,99.90
2022-11-06T07:13:41.956Z,99.90
2022-11-06T07:16:12.169Z,99.90
2022-11-06T07:18:42.237Z,99.90
2022-11-06T07:21:12.523Z,99.90
2022-11-06T07:23:41.254Z,99.90
2022-11-06T07:26:09.718Z,99.90
2022-11-06T07:28:38.225Z,99.90
2022-11-06T07:31:08.558Z,99.90
2022-11-06T07:33:37.319Z,99.90
2022-11-06T07:36:09.457Z,99.90
2022-11-06T07:38:38.779Z,99.90
2022-11-06T07:41:10.187Z,99.90
2022-11-06T07:43:39.347Z,99.90
2022-11-06T07:46:09.926Z,99.90
2022-11-06T07:48:39.645Z,99.90
2022-11-06T07:51:12.497Z,99.90
2022-11-06T07:53:41.628Z,99.90
2022-11-06T07:56:10.579Z,99.90
2022-11-06T07:58:39.906Z,99.90
2022-11-06T08:01:17.943Z,99.90
2022-11-06T08:03:47.610Z,99.90
2022-11-06T08:06:17.543Z,99.90
2022-11-06T08:08:46.055Z,99.90
2022-11-06T08:11:14.769Z,99.90
2022-11-06T08:13:44.240Z,99.90
2022-11-06T08:16:15.028Z,99.90
2022-11-06T08:18:45.089Z,99.90
2022-11-06T08:21:13.720Z,99.90
2022-11-06T08:23:43.748Z,99.90
2022-11-06T08:26:13.052Z,99.90
2022-11-06T08:28:43.654Z,99.90
2022-11-06T08:31:12.079Z,99.90
2022-11-06T08:33:41.713Z,99.90
2022-11-06T08:36:11.358Z,99.90
2022-11-06T08:38:40.207Z,99.90
2022-11-06T08:41:12.751Z,99.90
2022-11-06T08:43:41.728Z,99.90
2022-11-06T08:46:11.503Z,99.50
2022-11-06T08:48:40.233Z,99.30
2022-11-06T08:51:08.949Z,99.10
2022-11-06T08:53:37.566Z,99.10
2022-11-06T08:56:06.763Z,99.30
2022-11-06T08:58:36.952Z,99.10
2022-11-06T09:01:05.487Z,99.00
2022-11-06T09:03:34.196Z,98.90
2022-11-06T09:06:02.927Z,98.90
2022-11-06T09:08:31.310Z,99.10
2022-11-06T09:10:59.870Z,99.10
2022-11-06T09:13:28.406Z,99.10
2022-11-06T09:16:00.736Z,99.00
2022-11-06T09:18:29.303Z,98.90
2022-11-06T09:20:58.317Z,98.70
2022-11-06T09:23:27.470Z,98.50
2022-11-06T09:25:55.994Z,98.40
2022-11-06T09:28:24.894Z,98.30
2022-11-06T09:30:55.396Z,98.10
2022-11-06T09:33:26.034Z,97.80
2022-11-06T09:35:54.671Z,97.20
2022-11-06T09:38:23.137Z,97.10
2022-11-06T09:40:54.867Z,97.10
2022-11-06T09:44:04.697Z,96.80
2022-11-06T09:46:34.129Z,96.50
2022-11-06T09:49:12.339Z,96.40
2022-11-06T09:51:47.184Z,96.70
2022-11-06T09:54:21.873Z,96.50
2022-11-06T09:56:54.798Z,96.50
2022-11-06T09:59:23.869Z,96.50
2022-11-06T10:01:55.561Z,96.20
2022-11-06T10:04:37.070Z,96.20
2022-11-06T10:07:05.712Z,96.00
2022-11-06T10:09:35.111Z,96.10
2022-11-06T10:12:14.880Z,96.30
2022-11-06T10:14:54.741Z,96.10
2022-11-06T10:17:35.192Z,96.00
2022-11-06T10:20:13.750Z,95.60
2022-11-06T10:22:46.677Z,95.30
2022-11-06T10:25:22.229Z,94.80
2022-11-06T10:28:02.520Z,94.60
2022-11-06T10:30:41.806Z,94.80
2022-11-06T10:33:35.679Z,94.70
2022-11-06T10:36:09.406Z,94.50
2022-11-06T10:38:41.816Z,94.60
2022-11-06T10:41:18.778Z,94.30
2022-11-06T10:43:53.757Z,93.50
2022-11-06T10:46:28.658Z,94.00
2022-11-06T10:49:00.218Z,94.30
2022-11-06T10:51:58.962Z,93.80
2022-11-06T10:54:39.439Z,93.00
2022-11-06T10:57:19.670Z,93.10
2022-11-06T10:59:48.875Z,93.80
2022-11-06T11:02:26.179Z,93.70
2022-11-06T11:04:57.983Z,93.40
2022-11-06T11:07:32.741Z,93.10
2022-11-06T11:10:02.652Z,92.80
2022-11-06T11:12:33.694Z,92.60
2022-11-06T11:15:17.254Z,93.00
2022-11-06T11:18:10.150Z,93.40
2022-11-06T11:20:40.487Z,92.90
2022-11-06T11:23:18.600Z,92.70
2022-11-06T11:25:49.321Z,92.80
2022-11-06T11:28:39.723Z,93.00
2022-11-06T11:31:11.903Z,92.90
2022-11-06T11:33:41.917Z,92.80
2022-11-06T11:36:11.818Z,92.50
2022-11-06T11:38:43.310Z,91.70
2022-11-06T11:41:15.287Z,91.60
2022-11-06T11:43:44.279Z,92.00
2022-11-06T11:46:30.667Z,91.60
2022-11-06T11:49:00.294Z,92.10
2022-11-06T11:51:32.163Z,92.00
2022-11-06T11:54:07.438Z,91.70
2022-11-06T11:57:03.677Z,90.50
2022-11-06T11:59:38.653Z,90.10
2022-11-06T12:02:20.854Z,89.60
2022-11-06T12:04:54.406Z,89.10
2022-11-06T12:07:29.212Z,88.10
2022-11-06T12:10:06.788Z,87.20
2022-11-06T12:12:37.691Z,87.40
2022-11-06T12:15:21.482Z,86.70
2022-11-06T12:17:56.401Z,85.90
2022-11-06T12:20:31.730Z,85.50
2022-11-06T12:23:02.518Z,85.90
2022-11-06T12:25:37.488Z,86.50
2022-11-06T12:28:15.103Z,87.10
2022-11-06T12:30:47.493Z,88.30
2022-11-06T12:33:45.514Z,89.10
2022-11-06T12:36:18.451Z,89.50
2022-11-06T12:38:54.107Z,89.80
2022-11-06T12:41:27.360Z,90.20
2022-11-06T12:43:57.610Z,90.70
2022-11-06T12:46:42.856Z,89.50
2022-11-06T12:49:43.633Z,89.90
2022-11-06T12:52:29.207Z,90.20
2022-11-06T12:55:12.307Z,90.70
2022-11-06T12:58:04.406Z,90.90
2022-11-06T13:00:38.733Z,91.40
2022-11-06T13:03:35.871Z,91.60
2022-11-06T13:06:13.408Z,91.60
2022-11-06T13:08:50.733Z,91.50
2022-11-06T13:11:29.521Z,90.90
2022-11-06T13:14:09.716Z,89.40
2022-11-06T13:16:47.794Z,89.40
2022-11-06T13:19:22.104Z,89.10
2022-11-06T13:22:53.028Z,88.90
2022-11-06T13:25:29.375Z,89.20
2022-11-06T13:28:02.910Z,89.50
2022-11-06T13:30:35.281Z,89.80
2022-11-06T13:33:08.159Z,90.40
2022-11-06T13:35:40.232Z,90.70
2022-11-06T13:38:11.379Z,91.20
2022-11-06T13:40:44.328Z,91.30
2022-11-06T13:43:20.595Z,91.70
2022-11-06T13:45:57.971Z,91.70
2022-11-06T13:48:37.341Z,91.70
2022-11-06T13:51:13.973Z,91.50
2022-11-06T13:53:53.018Z,91.80
2022-11-06T13:56:43.440Z,92.10
2022-11-06T13:59:41.757Z,91.50
2022-11-06T14:02:44.211Z,91.20
2022-11-06T14:05:44.689Z,91.70
2022-11-06T14:08:17.966Z,91.70
2022-11-06T14:10:55.632Z,91.50
2022-11-06T14:13:33.484Z,91.20
2022-11-06T14:16:04.775Z,91.10
2022-11-06T14:18:35.538Z,90.90
2022-11-06T14:21:43.235Z,90.80
2022-11-06T14:24:35.105Z,90.30
2022-11-06T14:27:06.900Z,90.00
2022-11-06T14:30:00.577Z,90.00
2022-11-06T14:32:40.993Z,90.20
2022-11-06T14:35:52.342Z,90.10
2022-11-06T14:38:38.196Z,90.10
2022-11-06T14:41:49.411Z,89.60
2022-11-06T14:44:30.700Z,89.80
2022-11-06T14:47:02.498Z,90.00
2022-11-06T14:49:44.090Z,90.00
2022-11-06T14:52:16.067Z,90.20
2022-11-06T14:55:04.376Z,90.50
2022-11-06T14:57:43.742Z,90.50
2022-11-06T15:00:34.127Z,90.50
2022-11-06T15:03:03.550Z,90.70
2022-11-06T15:05:42.151Z,90.70
2022-11-06T15:08:11.733Z,90.80
2022-11-06T15:10:56.469Z,90.80
2022-11-06T15:13:27.725Z,90.90
2022-11-06T15:16:03.561Z,91.10
2022-11-06T15:18:34.421Z,91.50
2022-11-06T15:21:06.256Z,91.40
2022-11-06T15:23:42.786Z,91.80
2022-11-06T15:26:25.557Z,93.40
2022-11-06T15:29:08.084Z,95.10
2022-11-06T15:31:37.397Z,96.90
2022-11-06T15:34:08.513Z,99.00
2022-11-06T15:36:41.521Z,99.50
2022-11-06T15:39:34.648Z,99.90
2022-11-06T15:42:09.481Z,99.90
2022-11-06T15:44:42.701Z,99.90
2022-11-06T15:47:22.755Z,99.90
2022-11-06T15:50:08.601Z,99.90
2022-11-06T15:52:37.265Z,99.90
2022-11-06T15:55:07.173Z,99.90
2022-11-06T15:57:37.673Z,99.90
2022-11-06T16:00:11.162Z,99.90
2022-11-06T16:02:49.400Z,99.90
2022-11-06T16:05:19.330Z,99.90
2022-11-06T16:07:49.336Z,99.90
2022-11-06T16:10:18.511Z,99.90
2022-11-06T16:12:49.557Z,99.90
2022-11-06T16:15:53.127Z,99.90
2022-11-06T16:18:27.136Z,99.90
2022-11-06T16:20:59.846Z,99.90
2022-11-06T16:23:38.545Z,99.90
2022-11-06T16:26:10.545Z,99.90
2022-11-06T16:30:30.444Z,99.90
2022-11-06T16:36:55.203Z,99.90
2022-11-06T16:39:49.871Z,99.90
2022-11-06T16:42:26.994Z,99.90
2022-11-06T16:45:10.607Z,99.90
2022-11-06T16:47:39.869Z,99.90
2022-11-06T16:50:43.681Z,99.90
2022-11-06T16:53:13.388Z,99.90
2022-11-06T16:55:42.257Z,99.90
2022-11-06T16:58:17.658Z,99.90
2022-11-06T17:00:47.850Z,99.90
2022-11-06T17:03:22.687Z,99.90
2022-11-06T17:05:54.406Z,99.90
2022-11-06T17:08:25.287Z,99.90
2022-11-06T17:10:54.891Z,99.90
2022-11-06T17:13:24.897Z,99.90
2022-11-06T17:15:57.185Z,99.90
2022-11-06T17:18:28.124Z,99.90
2022-11-06T17:20:58.756Z,99.90
2022-11-06T17:23:28.880Z,99.90
2022-11-06T17:26:00.417Z,99.90
2022-11-06T17:28:29.479Z,99.90
2022-11-06T17:30:59.821Z,99.90
2022-11-06T17:33:28.493Z,99.90
2022-11-06T17:35:57.131Z,99.90
2022-11-06T17:38:26.002Z,99.90
2022-11-06T17:40:54.623Z,99.90
2022-11-06T17:43:23.145Z,99.90
2022-11-06T17:45:53.844Z,99.90
2022-11-06T17:48:24.201Z,99.90
2022-11-06T17:51:10.577Z,99.90
2022-11-06T17:53:39.205Z,99.90
2022-11-06T17:56:08.938Z,99.90
2022-11-06T17:59:24.139Z,99.90
2022-11-06T18:02:21.763Z,99.90
2022-11-06T18:05:08.881Z,99.90
2022-11-06T18:07:39.851Z,99.90
2022-11-06T18:10:09.489Z,99.90
2022-11-06T18:12:41.339Z,99.90
2022-11-06T18:15:35.558Z,99.90
2022-11-06T18:18:04.649Z,99.90
2022-11-06T18:20:34.705Z,99.90
2022-11-06T18:23:03.265Z,99.90
2022-11-06T18:25:31.893Z,99.90
2022-11-06T18:28:13.726Z,99.90
2022-11-06T18:30:42.308Z,99.90
2022-11-06T18:33:10.860Z,99.90
2022-11-06T18:35:40.822Z,99.90
2022-11-06T18:38:09.979Z,99.90
2022-11-06T18:40:40.033Z,99.90
2022-11-06T18:43:09.020Z,99.90
2022-11-06T18:45:38.918Z,99.90
2022-11-06T18:48:08.232Z,99.90
2022-11-06T18:50:37.891Z,99.90
2022-11-06T18:53:07.973Z,99.90
2022-11-06T18:55:36.580Z,99.90
2022-11-06T18:58:14.572Z,99.90
2022-11-06T19:00:43.547Z,99.90
2022-11-06T19:03:12.354Z,99.90
2022-11-06T19:05:50.316Z,99.90
2022-11-06T19:08:22.678Z,99.90
2022-11-06T19:10:51.485Z,99.90
2022-11-06T19:13:33.814Z,99.90
2022-11-06T19:16:04.096Z,99.90
2022-11-06T19:18:39.213Z,99.90
2022-11-06T19:21:11.870Z,99.90
2022-11-06T19:23:45.204Z,99.90
2022-11-06T19:26:31.901Z,99.90
2022-11-06T19:29:01.335Z,99.90
2022-11-06T19:31:30.758Z,99.90
2022-11-06T19:34:01.128Z,99.90
2022-11-06T19:36:31.613Z,99.90
2022-11-06T19:39:02.228Z,99.60
2022-11-06T19:41:34.290Z,99.50
2022-11-06T19:44:03.667Z,99.30
2022-11-06T19:46:46.035Z,99.40
2022-11-06T19:49:15.019Z,99.10
2022-11-06T19:51:43.912Z,98.90
2022-11-06T19:54:14.689Z,98.90
2022-11-06T19:57:28.577Z,99.10
2022-11-06T19:59:38.105Z,98.90
2022-11-06T20:02:07.430Z,98.80
2022-11-06T20:04:36.562Z,98.70
2022-11-06T20:07:05.949Z,98.90
2022-11-06T20:09:36.173Z,98.60
2022-11-06T20:12:05.455Z,98.60
2022-11-06T20:14:34.469Z,98.60
2022-11-06T20:17:03.835Z,98.40
2022-11-06T20:19:32.536Z,99.50
2022-11-06T20:22:02.887Z,99.70
2022-11-06T20:24:31.758Z,99.60
2022-11-06T20:27:01.809Z,99.30
2022-11-06T20:29:31.385Z,99.30
2022-11-06T20:31:59.995Z,99.20
2022-11-06T20:34:29.030Z,99.30
2022-11-06T20:36:57.637Z,99.10
2022-11-06T20:39:26.146Z,99.20
2022-11-06T20:41:54.734Z,99.30
2022-11-06T20:44:25.032Z,99.60
2022-11-06T20:46:53.554Z,99.60
2022-11-06T20:49:22.079Z,99.80
2022-11-06T20:52:12.652Z,99.80
2022-11-06T20:54:43.711Z,99.90
2022-11-06T20:57:15.105Z,99.90
2022-11-06T20:59:44.977Z,99.90
2022-11-06T21:02:13.682Z,99.90
2022-11-06T21:04:43.395Z,99.90
2022-11-06T21:07:11.877Z,99.90
2022-11-06T21:09:42.870Z,99.90
2022-11-06T21:12:11.801Z,99.90
2022-11-06T21:14:40.318Z,99.90
2022-11-06T21:17:10.240Z,99.90
2022-11-06T21:19:38.638Z,99.90
2022-11-06T21:22:06.957Z,99.90
2022-11-06T21:24:35.442Z,99.90
2022-11-06T21:27:03.761Z,99.90
2022-11-06T21:29:32.277Z,99.90
2022-11-06T21:32:00.545Z,99.90
2022-11-06T21:34:30.500Z,99.90
2022-11-06T21:37:02.636Z,99.90
2022-11-06T21:39:35.785Z,99.90
2022-11-06T21:42:04.939Z,99.90
2022-11-06T21:44:33.859Z,99.90
2022-11-06T21:47:02.251Z,99.90
2022-11-06T21:49:32.070Z,99.90
2022-11-06T21:52:25.096Z,99.90
2022-11-06T21:55:13.665Z,99.90
2022-11-06T21:57:42.167Z,99.90
2022-11-06T22:00:14.433Z,99.90
2022-11-06T22:02:43.738Z,99.90
2022-11-06T22:05:13.694Z,99.90
2022-11-06T22:07:42.162Z,99.90
2022-11-06T22:10:10.975Z,99.90
2022-11-06T22:12:39.512Z,99.90
2022-11-06T22:15:08.994Z,99.90
2022-11-06T22:17:38.225Z,99.90
2022-11-06T22:20:07.707Z,99.90
2022-11-06T22:22:37.389Z,99.90
2022-11-06T22:25:06.300Z,99.90
2022-11-06T22:27:39.627Z,99.90
2022-11-06T22:30:10.423Z,99.90
2022-11-06T22:32:38.824Z,99.90
2022-11-06T22:35:07.406Z,99.90
2022-11-06T22:37:37.333Z,99.90
2022-11-06T22:40:06.767Z,99.90
2022-11-06T22:42:35.246Z,99.90
2022-11-06T22:45:03.996Z,99.90
2022-11-06T22:47:32.470Z,99.90
2022-11-06T22:50:00.799Z,99.90
2022-11-06T22:52:29.102Z,99.90
2022-11-06T22:54:58.841Z,99.90
2022-11-06T22:57:27.076Z,99.90
2022-11-06T22:59:55.380Z,99.90
2022-11-06T23:02:23.892Z,99.90
2022-11-06T23:04:52.436Z,99.90
2022-11-06T23:07:20.852Z,99.90
2022-11-06T23:09:49.133Z,99.90
2022-11-06T23:12:19.017Z,99.90
2022-11-06T23:14:47.316Z,99.90
2022-11-06T23:17:15.565Z,99.90
2022-11-06T23:19:43.837Z,99.90
2022-11-06T23:22:31.532Z,99.90
2022-11-06T23:24:59.822Z,99.90
2022-11-06T23:27:29.616Z,99.90
2022-11-06T23:30:00.834Z,99.90
2022-11-06T23:32:29.465Z,99.90
2022-11-06T23:34:58.127Z,99.90
2022-11-06T23:37:27.258Z,99.90
2022-11-06T23:39:55.585Z,99.90
2022-11-06T23:42:24.184Z,99.90
2022-11-06T23:45:19.824Z,99.90
2022-11-06T23:47:50.355Z,99.90
2022-11-06T23:50:19.400Z,99.90
2022-11-06T23:52:47.969Z,99.90
2022-11-06T23:55:16.266Z,99.90
2022-11-06T23:57:44.767Z,99.90
